sensor_id;sensor_type;location;lat;lon;timestamp;P1;durP1;ratioP1;P2;durP2;ratioP2
41687;SDS011;27371;42.686;23.362;2023-07-16T00:01:56;7.95;;;6.28;;
41687;SDS011;27371;42.686;23.362;2023-07-16T00:04:21;10.88;;;6.80;;
41687;SDS011;27371;42.686;23.362;2023-07-16T00:06:47;17.35;;;7.15;;
41687;SDS011;27371;42.686;23.362;2023-07-16T00:09:12;9.27;;;6.53;;
41687;SDS011;27371;42.686;23.362;2023-07-16T00:11:38;10.93;;;6.32;;
41687;SDS011;27371;42.686;23.362;2023-07-16T00:14:03;10.80;;;6.00;;
41687;SDS011;27371;42.686;23.362;2023-07-16T00:16:29;7.03;;;5.97;;
41687;SDS011;27371;42.686;23.362;2023-07-16T00:18:54;12.27;;;6.00;;
41687;SDS011;27371;42.686;23.362;2023-07-16T00:21:30;8.80;;;6.05;;
41687;SDS011;27371;42.686;23.362;2023-07-16T00:23:56;8.50;;;6.20;;
41687;SDS011;27371;42.686;23.362;2023-07-16T00:26:21;10.45;;;5.60;;
41687;SDS011;27371;42.686;23.362;2023-07-16T00:28:47;9.68;;;6.00;;
41687;SDS011;27371;42.686;23.362;2023-07-16T00:31:12;6.45;;;5.20;;
41687;SDS011;27371;42.686;23.362;2023-07-16T00:33:38;7.28;;;5.22;;
41687;SDS011;27371;42.686;23.362;2023-07-16T00:36:03;10.20;;;5.03;;
41687;SDS011;27371;42.686;23.362;2023-07-16T00:38:29;7.63;;;5.38;;
41687;SDS011;27371;42.686;23.362;2023-07-16T00:40:55;8.13;;;5.00;;
41687;SDS011;27371;42.686;23.362;2023-07-16T00:43:21;9.90;;;5.70;;
41687;SDS011;27371;42.686;23.362;2023-07-16T00:45:46;6.80;;;4.93;;
41687;SDS011;27371;42.686;23.362;2023-07-16T00:48:12;12.93;;;4.90;;
41687;SDS011;27371;42.686;23.362;2023-07-16T00:50:38;10.43;;;5.20;;
41687;SDS011;27371;42.686;23.362;2023-07-16T00:53:11;7.93;;;4.82;;
41687;SDS011;27371;42.686;23.362;2023-07-16T00:55:37;8.68;;;5.03;;
41687;SDS011;27371;42.686;23.362;2023-07-16T00:58:04;9.40;;;4.38;;
41687;SDS011;27371;42.686;23.362;2023-07-16T01:00:35;11.32;;;4.78;;
41687;SDS011;27371;42.686;23.362;2023-07-16T01:03:02;9.32;;;4.53;;
41687;SDS011;27371;42.686;23.362;2023-07-16T01:08:36;7.70;;;4.55;;
41687;SDS011;27371;42.686;23.362;2023-07-16T01:11:05;7.88;;;5.25;;
41687;SDS011;27371;42.686;23.362;2023-07-16T01:13:32;10.23;;;4.68;;
41687;SDS011;27371;42.686;23.362;2023-07-16T01:15:57;8.95;;;5.15;;
41687;SDS011;27371;42.686;23.362;2023-07-16T01:18:23;6.32;;;4.53;;
41687;SDS011;27371;42.686;23.362;2023-07-16T01:20:48;10.38;;;4.80;;
41687;SDS011;27371;42.686;23.362;2023-07-16T01:23:26;8.98;;;4.70;;
41687;SDS011;27371;42.686;23.362;2023-07-16T01:29:11;14.32;;;4.88;;
41687;SDS011;27371;42.686;23.362;2023-07-16T01:31:59;9.50;;;4.40;;
41687;SDS011;27371;42.686;23.362;2023-07-16T01:34:28;13.95;;;5.93;;
41687;SDS011;27371;42.686;23.362;2023-07-16T01:36:58;8.77;;;4.50;;
41687;SDS011;27371;42.686;23.362;2023-07-16T01:39:24;7.47;;;5.30;;
41687;SDS011;27371;42.686;23.362;2023-07-16T01:41:51;9.43;;;4.63;;
41687;SDS011;27371;42.686;23.362;2023-07-16T01:44:16;10.18;;;4.88;;
41687;SDS011;27371;42.686;23.362;2023-07-16T01:46:42;6.78;;;3.83;;
41687;SDS011;27371;42.686;23.362;2023-07-16T01:49:07;6.35;;;3.35;;
41687;SDS011;27371;42.686;23.362;2023-07-16T01:51:33;7.85;;;3.67;;
41687;SDS011;27371;42.686;23.362;2023-07-16T01:53:58;9.00;;;3.50;;
41687;SDS011;27371;42.686;23.362;2023-07-16T01:56:23;8.38;;;3.22;;
41687;SDS011;27371;42.686;23.362;2023-07-16T01:58:49;6.38;;;3.28;;
41687;SDS011;27371;42.686;23.362;2023-07-16T02:01:15;12.50;;;3.70;;
41687;SDS011;27371;42.686;23.362;2023-07-16T02:03:40;5.10;;;3.53;;
41687;SDS011;27371;42.686;23.362;2023-07-16T02:06:06;9.20;;;3.22;;
41687;SDS011;27371;42.686;23.362;2023-07-16T02:08:31;8.85;;;3.20;;
41687;SDS011;27371;42.686;23.362;2023-07-16T02:10:57;5.00;;;3.45;;
41687;SDS011;27371;42.686;23.362;2023-07-16T02:13:22;4.97;;;3.95;;
41687;SDS011;27371;42.686;23.362;2023-07-16T02:15:48;7.47;;;4.00;;
41687;SDS011;27371;42.686;23.362;2023-07-16T02:18:13;4.75;;;3.72;;
41687;SDS011;27371;42.686;23.362;2023-07-16T02:20:38;8.52;;;4.63;;
41687;SDS011;27371;42.686;23.362;2023-07-16T02:23:04;7.38;;;4.75;;
41687;SDS011;27371;42.686;23.362;2023-07-16T02:25:30;6.30;;;4.38;;
41687;SDS011;27371;42.686;23.362;2023-07-16T02:27:57;4.65;;;3.92;;
41687;SDS011;27371;42.686;23.362;2023-07-16T02:30:22;6.57;;;3.85;;
41687;SDS011;27371;42.686;23.362;2023-07-16T02:32:48;9.73;;;4.70;;
41687;SDS011;27371;42.686;23.362;2023-07-16T02:35:13;7.95;;;4.35;;
41687;SDS011;27371;42.686;23.362;2023-07-16T02:37:40;11.82;;;4.50;;
41687;SDS011;27371;42.686;23.362;2023-07-16T02:40:07;9.00;;;4.30;;
41687;SDS011;27371;42.686;23.362;2023-07-16T02:42:33;10.18;;;4.45;;
41687;SDS011;27371;42.686;23.362;2023-07-16T02:44:58;8.65;;;4.43;;
41687;SDS011;27371;42.686;23.362;2023-07-16T02:47:24;9.18;;;4.55;;
41687;SDS011;27371;42.686;23.362;2023-07-16T02:49:52;7.47;;;3.90;;
41687;SDS011;27371;42.686;23.362;2023-07-16T02:52:18;7.00;;;4.22;;
41687;SDS011;27371;42.686;23.362;2023-07-16T02:54:44;6.40;;;3.50;;
41687;SDS011;27371;42.686;23.362;2023-07-16T02:57:09;7.43;;;3.67;;
41687;SDS011;27371;42.686;23.362;2023-07-16T02:59:34;5.93;;;3.80;;
41687;SDS011;27371;42.686;23.362;2023-07-16T03:02:00;8.88;;;3.53;;
41687;SDS011;27371;42.686;23.362;2023-07-16T03:04:25;6.13;;;3.42;;
41687;SDS011;27371;42.686;23.362;2023-07-16T03:06:51;7.93;;;4.18;;
41687;SDS011;27371;42.686;23.362;2023-07-16T03:09:17;9.43;;;4.40;;
41687;SDS011;27371;42.686;23.362;2023-07-16T03:11:42;9.70;;;4.00;;
41687;SDS011;27371;42.686;23.362;2023-07-16T03:14:08;10.45;;;4.18;;
41687;SDS011;27371;42.686;23.362;2023-07-16T03:16:33;10.15;;;4.43;;
41687;SDS011;27371;42.686;23.362;2023-07-16T03:18:59;7.78;;;4.20;;
41687;SDS011;27371;42.686;23.362;2023-07-16T03:21:24;7.78;;;4.13;;
41687;SDS011;27371;42.686;23.362;2023-07-16T03:23:50;6.50;;;3.90;;
41687;SDS011;27371;42.686;23.362;2023-07-16T03:26:16;9.50;;;3.55;;
41687;SDS011;27371;42.686;23.362;2023-07-16T03:28:41;5.03;;;3.20;;
41687;SDS011;27371;42.686;23.362;2023-07-16T03:31:07;6.78;;;3.65;;
41687;SDS011;27371;42.686;23.362;2023-07-16T03:33:32;5.75;;;4.10;;
41687;SDS011;27371;42.686;23.362;2023-07-16T03:35:58;10.13;;;3.67;;
41687;SDS011;27371;42.686;23.362;2023-07-16T03:38:23;5.50;;;3.67;;
41687;SDS011;27371;42.686;23.362;2023-07-16T03:40:49;7.55;;;3.47;;
41687;SDS011;27371;42.686;23.362;2023-07-16T03:43:15;6.78;;;3.35;;
41687;SDS011;27371;42.686;23.362;2023-07-16T03:45:41;8.30;;;4.00;;
41687;SDS011;27371;42.686;23.362;2023-07-16T03:48:07;6.80;;;3.90;;
41687;SDS011;27371;42.686;23.362;2023-07-16T03:50:34;6.80;;;3.40;;
41687;SDS011;27371;42.686;23.362;2023-07-16T03:52:59;9.55;;;4.10;;
41687;SDS011;27371;42.686;23.362;2023-07-16T03:55:25;9.80;;;3.25;;
41687;SDS011;27371;42.686;23.362;2023-07-16T03:57:51;6.40;;;3.53;;
41687;SDS011;27371;42.686;23.362;2023-07-16T04:00:16;6.55;;;3.58;;
41687;SDS011;27371;42.686;23.362;2023-07-16T04:02:42;3.90;;;3.30;;
41687;SDS011;27371;42.686;23.362;2023-07-16T04:05:07;7.70;;;3.60;;
41687;SDS011;27371;42.686;23.362;2023-07-16T04:07:33;8.95;;;3.47;;
41687;SDS011;27371;42.686;23.362;2023-07-16T04:09:59;6.70;;;3.22;;
41687;SDS011;27371;42.686;23.362;2023-07-16T04:12:24;7.38;;;3.70;;
41687;SDS011;27371;42.686;23.362;2023-07-16T04:14:53;8.60;;;3.75;;
41687;SDS011;27371;42.686;23.362;2023-07-16T04:17:21;7.18;;;3.60;;
41687;SDS011;27371;42.686;23.362;2023-07-16T04:19:46;8.65;;;3.42;;
41687;SDS011;27371;42.686;23.362;2023-07-16T04:22:12;5.85;;;3.25;;
41687;SDS011;27371;42.686;23.362;2023-07-16T04:24:37;6.72;;;3.60;;
41687;SDS011;27371;42.686;23.362;2023-07-16T04:27:03;4.50;;;3.05;;
41687;SDS011;27371;42.686;23.362;2023-07-16T04:29:28;9.10;;;3.53;;
41687;SDS011;27371;42.686;23.362;2023-07-16T04:31:54;9.00;;;3.67;;
41687;SDS011;27371;42.686;23.362;2023-07-16T04:34:19;5.45;;;3.47;;
41687;SDS011;27371;42.686;23.362;2023-07-16T04:36:45;5.97;;;3.45;;
41687;SDS011;27371;42.686;23.362;2023-07-16T04:39:10;9.18;;;3.58;;
41687;SDS011;27371;42.686;23.362;2023-07-16T04:41:36;7.53;;;3.28;;
41687;SDS011;27371;42.686;23.362;2023-07-16T04:44:02;5.85;;;3.40;;
41687;SDS011;27371;42.686;23.362;2023-07-16T04:46:27;5.22;;;3.88;;
41687;SDS011;27371;42.686;23.362;2023-07-16T04:48:55;4.07;;;2.90;;
41687;SDS011;27371;42.686;23.362;2023-07-16T04:51:20;6.28;;;3.90;;
41687;SDS011;27371;42.686;23.362;2023-07-16T04:53:46;5.15;;;3.25;;
41687;SDS011;27371;42.686;23.362;2023-07-16T04:56:14;6.38;;;3.20;;
41687;SDS011;27371;42.686;23.362;2023-07-16T04:58:41;5.75;;;3.28;;
41687;SDS011;27371;42.686;23.362;2023-07-16T05:01:08;11.15;;;3.72;;
41687;SDS011;27371;42.686;23.362;2023-07-16T05:03:34;6.50;;;3.45;;
41687;SDS011;27371;42.686;23.362;2023-07-16T05:06:00;5.70;;;3.35;;
41687;SDS011;27371;42.686;23.362;2023-07-16T05:08:25;5.97;;;2.90;;
41687;SDS011;27371;42.686;23.362;2023-07-16T05:10:54;4.20;;;2.90;;
41687;SDS011;27371;42.686;23.362;2023-07-16T05:13:20;6.43;;;3.10;;
41687;SDS011;27371;42.686;23.362;2023-07-16T05:15:45;7.40;;;3.75;;
41687;SDS011;27371;42.686;23.362;2023-07-16T05:18:11;4.70;;;2.97;;
41687;SDS011;27371;42.686;23.362;2023-07-16T05:20:37;7.93;;;3.20;;
41687;SDS011;27371;42.686;23.362;2023-07-16T05:23:02;9.32;;;2.50;;
41687;SDS011;27371;42.686;23.362;2023-07-16T05:25:28;4.72;;;2.58;;
41687;SDS011;27371;42.686;23.362;2023-07-16T05:27:53;5.07;;;3.08;;
41687;SDS011;27371;42.686;23.362;2023-07-16T05:30:19;3.72;;;2.70;;
41687;SDS011;27371;42.686;23.362;2023-07-16T05:32:44;5.22;;;3.13;;
41687;SDS011;27371;42.686;23.362;2023-07-16T05:35:10;6.40;;;2.35;;
41687;SDS011;27371;42.686;23.362;2023-07-16T05:37:35;5.97;;;2.92;;
41687;SDS011;27371;42.686;23.362;2023-07-16T05:40:01;8.07;;;2.95;;
41687;SDS011;27371;42.686;23.362;2023-07-16T05:42:28;8.48;;;3.00;;
41687;SDS011;27371;42.686;23.362;2023-07-16T05:44:53;4.05;;;2.63;;
41687;SDS011;27371;42.686;23.362;2023-07-16T05:47:19;10.00;;;3.05;;
41687;SDS011;27371;42.686;23.362;2023-07-16T05:49:44;7.38;;;2.92;;
41687;SDS011;27371;42.686;23.362;2023-07-16T05:52:10;5.40;;;2.85;;
41687;SDS011;27371;42.686;23.362;2023-07-16T05:54:35;5.05;;;2.80;;
41687;SDS011;27371;42.686;23.362;2023-07-16T05:57:01;5.15;;;2.63;;
41687;SDS011;27371;42.686;23.362;2023-07-16T05:59:26;6.80;;;3.03;;
41687;SDS011;27371;42.686;23.362;2023-07-16T06:01:52;5.20;;;2.80;;
41687;SDS011;27371;42.686;23.362;2023-07-16T06:04:18;9.90;;;2.90;;
41687;SDS011;27371;42.686;23.362;2023-07-16T06:06:43;3.53;;;2.63;;
41687;SDS011;27371;42.686;23.362;2023-07-16T06:09:09;4.68;;;2.80;;
41687;SDS011;27371;42.686;23.362;2023-07-16T06:11:34;5.75;;;3.08;;
41687;SDS011;27371;42.686;23.362;2023-07-16T06:13:59;5.03;;;2.60;;
41687;SDS011;27371;42.686;23.362;2023-07-16T06:16:25;4.35;;;2.42;;
41687;SDS011;27371;42.686;23.362;2023-07-16T06:18:51;8.05;;;2.63;;
41687;SDS011;27371;42.686;23.362;2023-07-16T06:21:16;3.88;;;2.53;;
41687;SDS011;27371;42.686;23.362;2023-07-16T06:23:42;6.68;;;3.00;;
41687;SDS011;27371;42.686;23.362;2023-07-16T06:26:07;6.15;;;2.88;;
41687;SDS011;27371;42.686;23.362;2023-07-16T06:28:33;3.75;;;2.38;;
41687;SDS011;27371;42.686;23.362;2023-07-16T06:30:58;5.80;;;2.95;;
41687;SDS011;27371;42.686;23.362;2023-07-16T06:33:24;5.13;;;2.83;;
41687;SDS011;27371;42.686;23.362;2023-07-16T06:35:52;3.75;;;2.53;;
41687;SDS011;27371;42.686;23.362;2023-07-16T06:38:17;4.32;;;2.83;;
41687;SDS011;27371;42.686;23.362;2023-07-16T06:40:49;6.20;;;2.53;;
41687;SDS011;27371;42.686;23.362;2023-07-16T06:43:17;10.23;;;4.22;;
41687;SDS011;27371;42.686;23.362;2023-07-16T06:45:43;5.15;;;2.85;;
41687;SDS011;27371;42.686;23.362;2023-07-16T06:48:08;7.00;;;2.42;;
41687;SDS011;27371;42.686;23.362;2023-07-16T06:50:34;7.38;;;2.97;;
41687;SDS011;27371;42.686;23.362;2023-07-16T06:52:59;4.60;;;2.30;;
41687;SDS011;27371;42.686;23.362;2023-07-16T06:55:25;4.93;;;2.70;;
41687;SDS011;27371;42.686;23.362;2023-07-16T06:57:50;6.20;;;2.50;;
41687;SDS011;27371;42.686;23.362;2023-07-16T07:00:16;9.48;;;3.15;;
41687;SDS011;27371;42.686;23.362;2023-07-16T07:02:42;5.75;;;2.60;;
41687;SDS011;27371;42.686;23.362;2023-07-16T07:05:07;6.63;;;2.60;;
41687;SDS011;27371;42.686;23.362;2023-07-16T07:07:33;6.78;;;2.55;;
41687;SDS011;27371;42.686;23.362;2023-07-16T07:09:59;3.92;;;2.53;;
41687;SDS011;27371;42.686;23.362;2023-07-16T07:12:24;5.85;;;2.60;;
41687;SDS011;27371;42.686;23.362;2023-07-16T07:14:50;6.53;;;2.97;;
41687;SDS011;27371;42.686;23.362;2023-07-16T07:17:15;7.15;;;2.53;;
41687;SDS011;27371;42.686;23.362;2023-07-16T07:19:41;6.35;;;2.58;;
41687;SDS011;27371;42.686;23.362;2023-07-16T07:22:07;4.85;;;3.08;;
41687;SDS011;27371;42.686;23.362;2023-07-16T07:24:33;6.43;;;2.88;;
41687;SDS011;27371;42.686;23.362;2023-07-16T07:26:58;9.98;;;3.00;;
41687;SDS011;27371;42.686;23.362;2023-07-16T07:29:24;8.20;;;2.88;;
41687;SDS011;27371;42.686;23.362;2023-07-16T07:31:50;6.72;;;2.70;;
41687;SDS011;27371;42.686;23.362;2023-07-16T07:34:15;7.15;;;3.05;;
41687;SDS011;27371;42.686;23.362;2023-07-16T07:36:41;7.70;;;3.08;;
41687;SDS011;27371;42.686;23.362;2023-07-16T07:39:07;4.25;;;2.92;;
41687;SDS011;27371;42.686;23.362;2023-07-16T07:41:32;8.05;;;2.80;;
41687;SDS011;27371;42.686;23.362;2023-07-16T07:43:58;7.50;;;3.40;;
41687;SDS011;27371;42.686;23.362;2023-07-16T07:46:23;3.40;;;3.05;;
41687;SDS011;27371;42.686;23.362;2023-07-16T07:48:49;7.68;;;3.17;;
41687;SDS011;27371;42.686;23.362;2023-07-16T07:51:17;6.53;;;3.30;;
41687;SDS011;27371;42.686;23.362;2023-07-16T07:53:42;5.20;;;3.30;;
41687;SDS011;27371;42.686;23.362;2023-07-16T07:56:08;7.65;;;3.42;;
41687;SDS011;27371;42.686;23.362;2023-07-16T07:58:33;8.02;;;2.90;;
41687;SDS011;27371;42.686;23.362;2023-07-16T08:01:08;13.20;;;3.67;;
41687;SDS011;27371;42.686;23.362;2023-07-16T08:03:34;5.82;;;3.50;;
41687;SDS011;27371;42.686;23.362;2023-07-16T08:06:00;7.00;;;2.88;;
41687;SDS011;27371;42.686;23.362;2023-07-16T08:08:26;8.02;;;3.40;;
41687;SDS011;27371;42.686;23.362;2023-07-16T08:10:52;5.60;;;3.00;;
41687;SDS011;27371;42.686;23.362;2023-07-16T08:13:18;5.93;;;3.47;;
41687;SDS011;27371;42.686;23.362;2023-07-16T08:15:44;6.78;;;3.40;;
41687;SDS011;27371;42.686;23.362;2023-07-16T08:18:09;7.15;;;3.60;;
41687;SDS011;27371;42.686;23.362;2023-07-16T08:20:35;6.38;;;3.65;;
41687;SDS011;27371;42.686;23.362;2023-07-16T08:23:01;6.00;;;3.15;;
41687;SDS011;27371;42.686;23.362;2023-07-16T08:25:27;8.10;;;3.97;;
41687;SDS011;27371;42.686;23.362;2023-07-16T08:27:52;7.53;;;3.47;;
41687;SDS011;27371;42.686;23.362;2023-07-16T08:30:18;7.30;;;3.78;;
41687;SDS011;27371;42.686;23.362;2023-07-16T08:32:43;7.28;;;3.15;;
41687;SDS011;27371;42.686;23.362;2023-07-16T08:35:09;5.15;;;2.90;;
41687;SDS011;27371;42.686;23.362;2023-07-16T08:37:41;6.63;;;3.05;;
41687;SDS011;27371;42.686;23.362;2023-07-16T08:40:08;6.10;;;3.15;;
41687;SDS011;27371;42.686;23.362;2023-07-16T08:42:36;6.82;;;3.65;;
41687;SDS011;27371;42.686;23.362;2023-07-16T08:45:02;6.53;;;3.47;;
41687;SDS011;27371;42.686;23.362;2023-07-16T08:47:31;8.75;;;3.60;;
41687;SDS011;27371;42.686;23.362;2023-07-16T08:49:56;6.47;;;3.47;;
41687;SDS011;27371;42.686;23.362;2023-07-16T08:52:22;6.40;;;3.63;;
41687;SDS011;27371;42.686;23.362;2023-07-16T08:54:49;9.82;;;4.05;;
41687;SDS011;27371;42.686;23.362;2023-07-16T08:57:14;9.68;;;4.60;;
41687;SDS011;27371;42.686;23.362;2023-07-16T08:59:40;8.32;;;4.25;;
41687;SDS011;27371;42.686;23.362;2023-07-16T09:02:06;6.53;;;3.88;;
41687;SDS011;27371;42.686;23.362;2023-07-16T09:04:32;11.13;;;6.70;;
41687;SDS011;27371;42.686;23.362;2023-07-16T09:06:58;6.05;;;4.10;;
41687;SDS011;27371;42.686;23.362;2023-07-16T09:09:24;6.70;;;3.75;;
41687;SDS011;27371;42.686;23.362;2023-07-16T09:11:49;4.85;;;3.83;;
41687;SDS011;27371;42.686;23.362;2023-07-16T09:14:19;8.57;;;4.22;;
41687;SDS011;27371;42.686;23.362;2023-07-16T09:16:48;8.80;;;4.13;;
41687;SDS011;27371;42.686;23.362;2023-07-16T09:19:17;7.32;;;4.47;;
41687;SDS011;27371;42.686;23.362;2023-07-16T09:21:47;6.18;;;4.22;;
41687;SDS011;27371;42.686;23.362;2023-07-16T09:24:13;6.85;;;4.25;;
41687;SDS011;27371;42.686;23.362;2023-07-16T09:26:46;12.32;;;4.60;;
41687;SDS011;27371;42.686;23.362;2023-07-16T09:29:16;8.63;;;5.10;;
41687;SDS011;27371;42.686;23.362;2023-07-16T09:34:36;12.57;;;5.45;;
41687;SDS011;27371;42.686;23.362;2023-07-16T09:37:04;8.38;;;5.20;;
41687;SDS011;27371;42.686;23.362;2023-07-16T09:39:31;9.98;;;5.40;;
41687;SDS011;27371;42.686;23.362;2023-07-16T09:41:58;8.40;;;5.22;;
41687;SDS011;27371;42.686;23.362;2023-07-16T09:44:24;9.15;;;5.50;;
41687;SDS011;27371;42.686;23.362;2023-07-16T09:46:49;10.98;;;4.93;;
41687;SDS011;27371;42.686;23.362;2023-07-16T09:49:15;7.07;;;4.78;;
41687;SDS011;27371;42.686;23.362;2023-07-16T09:51:41;6.25;;;4.63;;
41687;SDS011;27371;42.686;23.362;2023-07-16T09:54:09;9.13;;;4.97;;
41687;SDS011;27371;42.686;23.362;2023-07-16T09:56:44;10.48;;;4.97;;
41687;SDS011;27371;42.686;23.362;2023-07-16T09:59:13;9.40;;;4.60;;
41687;SDS011;27371;42.686;23.362;2023-07-16T10:01:41;12.13;;;5.88;;
41687;SDS011;27371;42.686;23.362;2023-07-16T10:04:11;10.38;;;5.03;;
41687;SDS011;27371;42.686;23.362;2023-07-16T10:06:47;10.88;;;4.88;;
41687;SDS011;27371;42.686;23.362;2023-07-16T10:12:20;8.90;;;4.80;;
41687;SDS011;27371;42.686;23.362;2023-07-16T10:14:47;8.57;;;4.72;;
41687;SDS011;27371;42.686;23.362;2023-07-16T10:17:15;10.43;;;4.90;;
41687;SDS011;27371;42.686;23.362;2023-07-16T10:19:52;9.45;;;5.32;;
41687;SDS011;27371;42.686;23.362;2023-07-16T10:22:35;10.43;;;6.10;;
41687;SDS011;27371;42.686;23.362;2023-07-16T10:25:25;10.48;;;5.35;;
41687;SDS011;27371;42.686;23.362;2023-07-16T10:27:55;10.90;;;5.60;;
41687;SDS011;27371;42.686;23.362;2023-07-16T10:30:20;11.25;;;5.50;;
41687;SDS011;27371;42.686;23.362;2023-07-16T10:32:46;10.98;;;5.90;;
41687;SDS011;27371;42.686;23.362;2023-07-16T10:35:12;9.85;;;5.95;;
41687;SDS011;27371;42.686;23.362;2023-07-16T10:37:39;9.43;;;5.75;;
41687;SDS011;27371;42.686;23.362;2023-07-16T10:40:05;8.65;;;5.43;;
41687;SDS011;27371;42.686;23.362;2023-07-16T10:42:36;8.00;;;5.35;;
41687;SDS011;27371;42.686;23.362;2023-07-16T10:45:03;11.30;;;5.35;;
41687;SDS011;27371;42.686;23.362;2023-07-16T10:49:55;8.27;;;5.30;;
41687;SDS011;27371;42.686;23.362;2023-07-16T10:52:21;10.25;;;5.13;;
41687;SDS011;27371;42.686;23.362;2023-07-16T10:54:48;10.48;;;5.63;;
41687;SDS011;27371;42.686;23.362;2023-07-16T10:57:15;9.05;;;5.65;;
41687;SDS011;27371;42.686;23.362;2023-07-16T10:59:41;8.93;;;5.30;;
41687;SDS011;27371;42.686;23.362;2023-07-16T11:02:12;10.50;;;5.13;;
41687;SDS011;27371;42.686;23.362;2023-07-16T11:04:39;8.70;;;5.28;;
41687;SDS011;27371;42.686;23.362;2023-07-16T11:07:08;7.55;;;5.57;;
41687;SDS011;27371;42.686;23.362;2023-07-16T11:09:42;10.67;;;5.60;;
41687;SDS011;27371;42.686;23.362;2023-07-16T11:12:12;11.95;;;6.95;;
41687;SDS011;27371;42.686;23.362;2023-07-16T11:14:41;6.78;;;5.13;;
41687;SDS011;27371;42.686;23.362;2023-07-16T11:17:09;10.10;;;6.03;;
41687;SDS011;27371;42.686;23.362;2023-07-16T11:19:35;9.00;;;5.95;;
41687;SDS011;27371;42.686;23.362;2023-07-16T11:22:03;8.43;;;5.35;;
41687;SDS011;27371;42.686;23.362;2023-07-16T11:24:37;10.55;;;5.57;;
41687;SDS011;27371;42.686;23.362;2023-07-16T11:29:46;10.05;;;6.03;;
41687;SDS011;27371;42.686;23.362;2023-07-16T11:35:01;12.35;;;5.45;;
41687;SDS011;27371;42.686;23.362;2023-07-16T11:37:29;9.93;;;5.95;;
41687;SDS011;27371;42.686;23.362;2023-07-16T11:39:56;11.77;;;5.80;;
41687;SDS011;27371;42.686;23.362;2023-07-16T11:42:30;8.02;;;5.35;;
41687;SDS011;27371;42.686;23.362;2023-07-16T11:44:56;9.32;;;6.43;;
41687;SDS011;27371;42.686;23.362;2023-07-16T11:47:23;13.07;;;5.72;;
41687;SDS011;27371;42.686;23.362;2023-07-16T11:49:49;13.00;;;5.97;;
41687;SDS011;27371;42.686;23.362;2023-07-16T11:52:14;10.20;;;5.90;;
41687;SDS011;27371;42.686;23.362;2023-07-16T11:54:44;12.25;;;6.15;;
41687;SDS011;27371;42.686;23.362;2023-07-16T11:57:10;8.80;;;5.78;;
41687;SDS011;27371;42.686;23.362;2023-07-16T11:59:35;8.45;;;5.40;;
41687;SDS011;27371;42.686;23.362;2023-07-16T12:02:01;8.32;;;5.30;;
41687;SDS011;27371;42.686;23.362;2023-07-16T12:04:28;8.80;;;6.00;;
41687;SDS011;27371;42.686;23.362;2023-07-16T12:06:53;12.82;;;5.95;;
41687;SDS011;27371;42.686;23.362;2023-07-16T12:09:19;10.77;;;5.82;;
41687;SDS011;27371;42.686;23.362;2023-07-16T12:11:44;10.00;;;5.28;;
41687;SDS011;27371;42.686;23.362;2023-07-16T12:14:09;9.63;;;6.00;;
41687;SDS011;27371;42.686;23.362;2023-07-16T12:16:37;11.15;;;6.75;;
41687;SDS011;27371;42.686;23.362;2023-07-16T12:19:02;11.35;;;5.20;;
41687;SDS011;27371;42.686;23.362;2023-07-16T12:21:28;9.32;;;4.97;;
41687;SDS011;27371;42.686;23.362;2023-07-16T12:23:53;10.13;;;4.93;;
41687;SDS011;27371;42.686;23.362;2023-07-16T12:26:19;9.00;;;5.00;;
41687;SDS011;27371;42.686;23.362;2023-07-16T12:28:44;8.15;;;5.00;;
41687;SDS011;27371;42.686;23.362;2023-07-16T12:31:10;11.60;;;5.40;;
41687;SDS011;27371;42.686;23.362;2023-07-16T12:33:35;8.90;;;5.70;;
41687;SDS011;27371;42.686;23.362;2023-07-16T12:36:01;8.25;;;5.40;;
41687;SDS011;27371;42.686;23.362;2023-07-16T12:38:26;11.80;;;5.70;;
41687;SDS011;27371;42.686;23.362;2023-07-16T12:40:52;9.00;;;5.75;;
41687;SDS011;27371;42.686;23.362;2023-07-16T12:43:17;8.52;;;5.50;;
41687;SDS011;27371;42.686;23.362;2023-07-16T12:45:43;8.25;;;5.60;;
41687;SDS011;27371;42.686;23.362;2023-07-16T12:48:08;9.32;;;5.68;;
41687;SDS011;27371;42.686;23.362;2023-07-16T12:50:34;10.98;;;6.15;;
41687;SDS011;27371;42.686;23.362;2023-07-16T12:52:59;6.50;;;5.15;;
41687;SDS011;27371;42.686;23.362;2023-07-16T12:55:25;8.73;;;5.07;;
41687;SDS011;27371;42.686;23.362;2023-07-16T12:57:50;7.40;;;5.05;;
41687;SDS011;27371;42.686;23.362;2023-07-16T13:00:16;7.88;;;5.00;;
41687;SDS011;27371;42.686;23.362;2023-07-16T13:02:41;11.07;;;5.55;;
41687;SDS011;27371;42.686;23.362;2023-07-16T13:05:07;10.50;;;5.10;;
41687;SDS011;27371;42.686;23.362;2023-07-16T13:07:33;7.55;;;5.18;;
41687;SDS011;27371;42.686;23.362;2023-07-16T13:09:58;7.00;;;4.97;;
41687;SDS011;27371;42.686;23.362;2023-07-16T13:12:24;10.55;;;5.68;;
41687;SDS011;27371;42.686;23.362;2023-07-16T13:14:49;6.88;;;5.30;;
41687;SDS011;27371;42.686;23.362;2023-07-16T13:17:16;7.78;;;5.22;;
41687;SDS011;27371;42.686;23.362;2023-07-16T13:19:42;7.57;;;5.30;;
41687;SDS011;27371;42.686;23.362;2023-07-16T13:22:08;8.30;;;4.88;;
41687;SDS011;27371;42.686;23.362;2023-07-16T13:24:33;12.30;;;4.82;;
41687;SDS011;27371;42.686;23.362;2023-07-16T13:26:59;9.45;;;4.93;;
41687;SDS011;27371;42.686;23.362;2023-07-16T13:29:24;9.27;;;4.78;;
41687;SDS011;27371;42.686;23.362;2023-07-16T13:31:50;8.02;;;4.72;;
41687;SDS011;27371;42.686;23.362;2023-07-16T13:34:15;8.77;;;4.68;;
41687;SDS011;27371;42.686;23.362;2023-07-16T13:36:41;7.18;;;4.50;;
41687;SDS011;27371;42.686;23.362;2023-07-16T13:39:06;7.45;;;5.00;;
41687;SDS011;27371;42.686;23.362;2023-07-16T13:41:32;12.20;;;5.03;;
41687;SDS011;27371;42.686;23.362;2023-07-16T13:43:57;7.68;;;4.60;;
41687;SDS011;27371;42.686;23.362;2023-07-16T13:46:23;13.45;;;5.35;;
41687;SDS011;27371;42.686;23.362;2023-07-16T13:48:48;6.90;;;5.13;;
41687;SDS011;27371;42.686;23.362;2023-07-16T13:51:14;8.82;;;5.00;;
41687;SDS011;27371;42.686;23.362;2023-07-16T13:53:40;8.63;;;5.43;;
41687;SDS011;27371;42.686;23.362;2023-07-16T13:56:05;6.72;;;4.65;;
41687;SDS011;27371;42.686;23.362;2023-07-16T13:58:31;7.43;;;4.60;;
41687;SDS011;27371;42.686;23.362;2023-07-16T14:00:56;7.97;;;4.85;;
41687;SDS011;27371;42.686;23.362;2023-07-16T14:03:23;8.77;;;4.47;;
41687;SDS011;27371;42.686;23.362;2023-07-16T14:05:48;10.48;;;5.00;;
41687;SDS011;27371;42.686;23.362;2023-07-16T14:08:14;9.30;;;5.18;;
41687;SDS011;27371;42.686;23.362;2023-07-16T14:10:39;9.23;;;5.70;;
41687;SDS011;27371;42.686;23.362;2023-07-16T14:13:05;10.05;;;5.10;;
41687;SDS011;27371;42.686;23.362;2023-07-16T14:15:30;9.68;;;4.82;;
41687;SDS011;27371;42.686;23.362;2023-07-16T14:17:56;7.50;;;5.07;;
41687;SDS011;27371;42.686;23.362;2023-07-16T14:20:22;13.00;;;4.93;;
41687;SDS011;27371;42.686;23.362;2023-07-16T14:22:47;5.85;;;4.82;;
41687;SDS011;27371;42.686;23.362;2023-07-16T14:25:13;6.47;;;5.00;;
41687;SDS011;27371;42.686;23.362;2023-07-16T14:27:38;8.50;;;4.88;;
41687;SDS011;27371;42.686;23.362;2023-07-16T14:30:04;9.38;;;4.63;;
41687;SDS011;27371;42.686;23.362;2023-07-16T14:32:30;11.35;;;5.32;;
41687;SDS011;27371;42.686;23.362;2023-07-16T14:34:56;8.55;;;5.03;;
41687;SDS011;27371;42.686;23.362;2023-07-16T14:37:22;7.47;;;5.10;;
41687;SDS011;27371;42.686;23.362;2023-07-16T14:39:48;12.45;;;5.50;;
41687;SDS011;27371;42.686;23.362;2023-07-16T14:42:13;7.18;;;4.57;;
41687;SDS011;27371;42.686;23.362;2023-07-16T14:44:39;7.10;;;4.95;;
41687;SDS011;27371;42.686;23.362;2023-07-16T14:47:04;6.78;;;5.05;;